Terminal Aerodrome Forecast
Issued by NWS

Home | Current Version | Previous Version | Text Only | Print | Product List | Glossary On
Versions: 1 2 3 4 5 6 7 8 9 10 11 12 13 14 15 16 17 18
000
FTUS43 KOAX 071312 AAA
TAFBFF
TAF AMD
KBFF 071312Z 0713/0812 32012KT 3SM -SN BKN025 BKN150
     FM071430 31018G29KT P6SM BKN080
     FM071700 31029G44KT P6SM FEW200
     FM080000 31017G27KT P6SM SCT200
     FM080900 31013KT P6SM BKN250=

USA.gov is the U.S. government's official web portal to all federal, state and local government web resources and services.